sensor_id;sensor_type;location;lat;lon;timestamp;P1;durP1;ratioP1;P2;durP2;ratioP2
72406;SDS011;60396;47.550;18.828;2022-07-05T00:01:28;6.00;;;1.73;;
72406;SDS011;60396;47.550;18.828;2022-07-05T00:03:55;4.40;;;1.50;;
72406;SDS011;60396;47.550;18.828;2022-07-05T00:06:23;6.32;;;1.70;;
72406;SDS011;60396;47.550;18.828;2022-07-05T00:08:51;6.47;;;2.12;;
72406;SDS011;60396;47.550;18.828;2022-07-05T00:11:19;6.40;;;1.73;;
72406;SDS011;60396;47.550;18.828;2022-07-05T00:13:46;5.57;;;1.63;;
72406;SDS011;60396;47.550;18.828;2022-07-05T00:16:14;5.07;;;1.90;;
72406;SDS011;60396;47.550;18.828;2022-07-05T00:18:42;4.62;;;1.35;;
72406;SDS011;60396;47.550;18.828;2022-07-05T00:21:09;6.40;;;1.60;;
72406;SDS011;60396;47.550;18.828;2022-07-05T00:23:37;4.45;;;1.70;;
72406;SDS011;60396;47.550;18.828;2022-07-05T00:26:05;9.43;;;1.60;;
72406;SDS011;60396;47.550;18.828;2022-07-05T00:28:32;6.15;;;2.05;;
72406;SDS011;60396;47.550;18.828;2022-07-05T00:31:00;4.07;;;1.30;;
72406;SDS011;60396;47.550;18.828;2022-07-05T00:33:28;6.15;;;1.50;;
72406;SDS011;60396;47.550;18.828;2022-07-05T00:35:56;5.65;;;1.62;;
72406;SDS011;60396;47.550;18.828;2022-07-05T00:38:23;6.27;;;1.70;;
72406;SDS011;60396;47.550;18.828;2022-07-05T00:40:51;8.88;;;1.80;;
72406;SDS011;60396;47.550;18.828;2022-07-05T00:43:19;5.05;;;1.67;;
72406;SDS011;60396;47.550;18.828;2022-07-05T00:45:46;4.55;;;1.67;;
72406;SDS011;60396;47.550;18.828;2022-07-05T00:48:14;5.87;;;1.70;;
72406;SDS011;60396;47.550;18.828;2022-07-05T00:50:42;7.37;;;2.33;;
72406;SDS011;60396;47.550;18.828;2022-07-05T00:53:12;4.50;;;1.60;;
72406;SDS011;60396;47.550;18.828;2022-07-05T00:55:40;6.20;;;1.58;;
72406;SDS011;60396;47.550;18.828;2022-07-05T00:58:07;4.20;;;1.67;;
72406;SDS011;60396;47.550;18.828;2022-07-05T01:00:35;6.03;;;1.77;;
72406;SDS011;60396;47.550;18.828;2022-07-05T01:03:03;4.93;;;1.63;;
72406;SDS011;60396;47.550;18.828;2022-07-05T01:05:31;5.60;;;1.62;;
72406;SDS011;60396;47.550;18.828;2022-07-05T01:07:59;5.20;;;1.58;;
72406;SDS011;60396;47.550;18.828;2022-07-05T01:10:28;4.62;;;1.50;;
72406;SDS011;60396;47.550;18.828;2022-07-05T01:12:56;4.10;;;1.40;;
72406;SDS011;60396;47.550;18.828;2022-07-05T01:15:23;6.33;;;1.50;;
72406;SDS011;60396;47.550;18.828;2022-07-05T01:17:53;5.60;;;1.30;;
72406;SDS011;60396;47.550;18.828;2022-07-05T01:20:21;8.13;;;1.73;;
72406;SDS011;60396;47.550;18.828;2022-07-05T01:22:50;6.10;;;1.62;;
72406;SDS011;60396;47.550;18.828;2022-07-05T01:25:20;4.12;;;1.40;;
72406;SDS011;60396;47.550;18.828;2022-07-05T01:27:52;4.27;;;1.67;;
72406;SDS011;60396;47.550;18.828;2022-07-05T01:30:21;4.78;;;1.50;;
72406;SDS011;60396;47.550;18.828;2022-07-05T01:32:49;3.25;;;1.10;;
72406;SDS011;60396;47.550;18.828;2022-07-05T01:35:17;4.12;;;1.60;;
72406;SDS011;60396;47.550;18.828;2022-07-05T01:37:48;4.35;;;1.30;;
72406;SDS011;60396;47.550;18.828;2022-07-05T01:40:17;4.63;;;1.60;;
72406;SDS011;60396;47.550;18.828;2022-07-05T01:42:46;4.87;;;1.70;;
72406;SDS011;60396;47.550;18.828;2022-07-05T01:45:15;4.18;;;1.48;;
72406;SDS011;60396;47.550;18.828;2022-07-05T01:48:04;4.95;;;1.70;;
72406;SDS011;60396;47.550;18.828;2022-07-05T01:50:36;5.03;;;1.40;;
72406;SDS011;60396;47.550;18.828;2022-07-05T01:53:06;6.27;;;1.77;;
72406;SDS011;60396;47.550;18.828;2022-07-05T01:55:42;4.90;;;1.60;;
72406;SDS011;60396;47.550;18.828;2022-07-05T01:58:10;4.28;;;1.55;;
72406;SDS011;60396;47.550;18.828;2022-07-05T02:00:43;4.03;;;1.65;;
72406;SDS011;60396;47.550;18.828;2022-07-05T02:03:12;4.20;;;1.30;;
72406;SDS011;60396;47.550;18.828;2022-07-05T02:05:40;5.23;;;1.63;;
72406;SDS011;60396;47.550;18.828;2022-07-05T02:08:10;5.95;;;1.42;;
72406;SDS011;60396;47.550;18.828;2022-07-05T02:10:38;5.10;;;1.55;;
72406;SDS011;60396;47.550;18.828;2022-07-05T02:13:07;4.18;;;1.40;;
72406;SDS011;60396;47.550;18.828;2022-07-05T02:15:36;5.05;;;1.50;;
72406;SDS011;60396;47.550;18.828;2022-07-05T02:18:05;5.57;;;1.50;;
72406;SDS011;60396;47.550;18.828;2022-07-05T02:20:38;5.07;;;1.83;;
72406;SDS011;60396;47.550;18.828;2022-07-05T02:23:07;4.25;;;1.67;;
72406;SDS011;60396;47.550;18.828;2022-07-05T02:25:36;5.68;;;1.70;;
72406;SDS011;60396;47.550;18.828;2022-07-05T02:28:04;7.03;;;1.65;;
72406;SDS011;60396;47.550;18.828;2022-07-05T02:30:33;3.87;;;1.40;;
72406;SDS011;60396;47.550;18.828;2022-07-05T02:33:01;3.80;;;1.37;;
72406;SDS011;60396;47.550;18.828;2022-07-05T02:35:29;4.50;;;1.37;;
72406;SDS011;60396;47.550;18.828;2022-07-05T02:37:57;5.10;;;1.80;;
72406;SDS011;60396;47.550;18.828;2022-07-05T02:40:24;5.78;;;1.55;;
72406;SDS011;60396;47.550;18.828;2022-07-05T02:42:52;4.27;;;1.40;;
72406;SDS011;60396;47.550;18.828;2022-07-05T02:45:20;4.43;;;1.58;;
72406;SDS011;60396;47.550;18.828;2022-07-05T02:47:49;4.70;;;1.42;;
72406;SDS011;60396;47.550;18.828;2022-07-05T02:50:17;5.82;;;1.60;;
72406;SDS011;60396;47.550;18.828;2022-07-05T02:52:45;4.12;;;1.42;;
72406;SDS011;60396;47.550;18.828;2022-07-05T02:55:14;7.20;;;1.93;;
72406;SDS011;60396;47.550;18.828;2022-07-05T02:57:42;6.20;;;1.75;;
72406;SDS011;60396;47.550;18.828;2022-07-05T03:00:10;6.47;;;1.62;;
72406;SDS011;60396;47.550;18.828;2022-07-05T03:02:38;4.87;;;1.70;;
72406;SDS011;60396;47.550;18.828;2022-07-05T03:05:06;4.78;;;1.52;;
72406;SDS011;60396;47.550;18.828;2022-07-05T03:07:34;6.17;;;1.70;;
72406;SDS011;60396;47.550;18.828;2022-07-05T03:10:04;6.87;;;1.85;;
72406;SDS011;60396;47.550;18.828;2022-07-05T03:12:33;9.63;;;1.58;;
72406;SDS011;60396;47.550;18.828;2022-07-05T03:15:01;5.87;;;1.75;;
72406;SDS011;60396;47.550;18.828;2022-07-05T03:17:29;6.72;;;1.58;;
72406;SDS011;60396;47.550;18.828;2022-07-05T03:19:57;4.53;;;1.80;;
72406;SDS011;60396;47.550;18.828;2022-07-05T03:22:25;5.20;;;1.60;;
72406;SDS011;60396;47.550;18.828;2022-07-05T03:24:54;4.57;;;1.62;;
72406;SDS011;60396;47.550;18.828;2022-07-05T03:27:22;6.32;;;1.70;;
72406;SDS011;60396;47.550;18.828;2022-07-05T03:29:51;4.97;;;1.55;;
72406;SDS011;60396;47.550;18.828;2022-07-05T03:32:19;5.33;;;1.40;;
72406;SDS011;60396;47.550;18.828;2022-07-05T03:34:46;7.32;;;1.70;;
72406;SDS011;60396;47.550;18.828;2022-07-05T03:37:15;6.43;;;1.33;;
72406;SDS011;60396;47.550;18.828;2022-07-05T03:39:43;6.25;;;1.75;;
72406;SDS011;60396;47.550;18.828;2022-07-05T03:42:11;4.85;;;1.58;;
72406;SDS011;60396;47.550;18.828;2022-07-05T03:44:39;4.97;;;1.47;;
72406;SDS011;60396;47.550;18.828;2022-07-05T03:47:06;6.62;;;1.37;;
72406;SDS011;60396;47.550;18.828;2022-07-05T03:49:34;4.35;;;1.33;;
72406;SDS011;60396;47.550;18.828;2022-07-05T03:52:02;3.83;;;1.40;;
72406;SDS011;60396;47.550;18.828;2022-07-05T03:54:30;6.03;;;1.58;;
72406;SDS011;60396;47.550;18.828;2022-07-05T03:56:58;5.07;;;1.63;;
72406;SDS011;60396;47.550;18.828;2022-07-05T03:59:26;4.80;;;1.70;;
72406;SDS011;60396;47.550;18.828;2022-07-05T04:01:54;3.97;;;1.33;;
72406;SDS011;60396;47.550;18.828;2022-07-05T04:04:22;4.43;;;1.33;;
72406;SDS011;60396;47.550;18.828;2022-07-05T04:06:50;5.70;;;1.48;;
72406;SDS011;60396;47.550;18.828;2022-07-05T04:09:18;5.60;;;1.40;;
72406;SDS011;60396;47.550;18.828;2022-07-05T04:11:46;3.83;;;1.10;;
72406;SDS011;60396;47.550;18.828;2022-07-05T04:14:14;4.00;;;1.30;;
72406;SDS011;60396;47.550;18.828;2022-07-05T04:16:42;4.47;;;1.40;;
72406;SDS011;60396;47.550;18.828;2022-07-05T04:19:10;3.47;;;1.35;;
72406;SDS011;60396;47.550;18.828;2022-07-05T04:21:37;4.03;;;1.47;;
72406;SDS011;60396;47.550;18.828;2022-07-05T04:24:05;4.62;;;1.27;;
72406;SDS011;60396;47.550;18.828;2022-07-05T04:26:34;6.15;;;1.65;;
72406;SDS011;60396;47.550;18.828;2022-07-05T04:29:02;5.07;;;1.35;;
72406;SDS011;60396;47.550;18.828;2022-07-05T04:31:31;5.65;;;1.55;;
72406;SDS011;60396;47.550;18.828;2022-07-05T04:33:59;5.20;;;1.80;;
72406;SDS011;60396;47.550;18.828;2022-07-05T04:36:27;3.37;;;1.17;;
72406;SDS011;60396;47.550;18.828;2022-07-05T04:38:55;6.22;;;1.80;;
72406;SDS011;60396;47.550;18.828;2022-07-05T04:41:24;4.70;;;1.65;;
72406;SDS011;60396;47.550;18.828;2022-07-05T04:43:52;5.75;;;1.50;;
72406;SDS011;60396;47.550;18.828;2022-07-05T04:46:20;5.07;;;1.40;;
72406;SDS011;60396;47.550;18.828;2022-07-05T04:48:48;6.25;;;2.47;;
72406;SDS011;60396;47.550;18.828;2022-07-05T04:51:16;6.32;;;2.10;;
72406;SDS011;60396;47.550;18.828;2022-07-05T04:53:44;6.87;;;2.08;;
72406;SDS011;60396;47.550;18.828;2022-07-05T04:56:11;6.87;;;1.62;;
72406;SDS011;60396;47.550;18.828;2022-07-05T04:58:39;7.90;;;1.40;;
72406;SDS011;60396;47.550;18.828;2022-07-05T05:01:07;5.62;;;1.80;;
72406;SDS011;60396;47.550;18.828;2022-07-05T05:03:35;4.68;;;1.30;;
72406;SDS011;60396;47.550;18.828;2022-07-05T05:06:03;4.28;;;1.40;;
72406;SDS011;60396;47.550;18.828;2022-07-05T05:08:30;5.50;;;1.60;;
72406;SDS011;60396;47.550;18.828;2022-07-05T05:10:58;4.23;;;1.27;;
72406;SDS011;60396;47.550;18.828;2022-07-05T05:13:26;4.12;;;1.60;;
72406;SDS011;60396;47.550;18.828;2022-07-05T05:15:54;4.97;;;1.48;;
72406;SDS011;60396;47.550;18.828;2022-07-05T05:18:22;4.85;;;1.42;;
72406;SDS011;60396;47.550;18.828;2022-07-05T05:20:54;5.82;;;1.80;;
72406;SDS011;60396;47.550;18.828;2022-07-05T05:23:22;4.07;;;1.30;;
72406;SDS011;60396;47.550;18.828;2022-07-05T05:25:50;5.00;;;1.58;;
72406;SDS011;60396;47.550;18.828;2022-07-05T05:28:18;5.15;;;1.60;;
72406;SDS011;60396;47.550;18.828;2022-07-05T05:30:46;6.00;;;1.52;;
72406;SDS011;60396;47.550;18.828;2022-07-05T05:33:14;6.05;;;1.50;;
72406;SDS011;60396;47.550;18.828;2022-07-05T05:35:42;5.57;;;1.57;;
72406;SDS011;60396;47.550;18.828;2022-07-05T05:38:10;6.45;;;1.80;;
72406;SDS011;60396;47.550;18.828;2022-07-05T05:40:37;7.03;;;1.50;;
72406;SDS011;60396;47.550;18.828;2022-07-05T05:43:05;6.20;;;1.70;;
72406;SDS011;60396;47.550;18.828;2022-07-05T05:45:33;7.35;;;1.60;;
72406;SDS011;60396;47.550;18.828;2022-07-05T05:48:01;7.13;;;1.73;;
72406;SDS011;60396;47.550;18.828;2022-07-05T05:50:32;6.18;;;1.55;;
72406;SDS011;60396;47.550;18.828;2022-07-05T05:53:02;9.75;;;1.90;;
72406;SDS011;60396;47.550;18.828;2022-07-05T05:55:30;6.78;;;1.52;;
72406;SDS011;60396;47.550;18.828;2022-07-05T05:58:12;7.72;;;1.62;;
72406;SDS011;60396;47.550;18.828;2022-07-05T06:00:43;7.00;;;1.70;;
72406;SDS011;60396;47.550;18.828;2022-07-05T06:03:11;7.37;;;1.65;;
72406;SDS011;60396;47.550;18.828;2022-07-05T06:05:39;12.23;;;1.67;;
72406;SDS011;60396;47.550;18.828;2022-07-05T06:08:07;5.12;;;1.58;;
72406;SDS011;60396;47.550;18.828;2022-07-05T06:10:35;6.05;;;1.80;;
72406;SDS011;60396;47.550;18.828;2022-07-05T06:13:04;4.27;;;1.27;;
72406;SDS011;60396;47.550;18.828;2022-07-05T06:15:32;7.15;;;1.92;;
72406;SDS011;60396;47.550;18.828;2022-07-05T06:18:00;3.70;;;1.33;;
72406;SDS011;60396;47.550;18.828;2022-07-05T06:20:30;4.75;;;1.67;;
72406;SDS011;60396;47.550;18.828;2022-07-05T06:22:59;4.05;;;1.30;;
72406;SDS011;60396;47.550;18.828;2022-07-05T06:25:28;3.90;;;1.43;;
72406;SDS011;60396;47.550;18.828;2022-07-05T06:28:03;5.40;;;1.80;;
72406;SDS011;60396;47.550;18.828;2022-07-05T06:30:37;5.32;;;1.48;;
72406;SDS011;60396;47.550;18.828;2022-07-05T06:33:05;4.90;;;1.50;;
72406;SDS011;60396;47.550;18.828;2022-07-05T06:35:33;4.30;;;1.40;;
72406;SDS011;60396;47.550;18.828;2022-07-05T06:38:05;4.33;;;1.37;;
72406;SDS011;60396;47.550;18.828;2022-07-05T06:40:35;4.15;;;1.10;;
72406;SDS011;60396;47.550;18.828;2022-07-05T06:43:05;5.82;;;1.58;;
72406;SDS011;60396;47.550;18.828;2022-07-05T06:45:36;9.20;;;1.62;;
72406;SDS011;60396;47.550;18.828;2022-07-05T06:48:05;3.87;;;1.17;;
72406;SDS011;60396;47.550;18.828;2022-07-05T06:50:35;4.43;;;1.40;;
72406;SDS011;60396;47.550;18.828;2022-07-05T06:53:04;4.57;;;1.17;;
72406;SDS011;60396;47.550;18.828;2022-07-05T06:55:33;5.07;;;1.33;;
72406;SDS011;60396;47.550;18.828;2022-07-05T06:58:02;6.35;;;1.30;;
72406;SDS011;60396;47.550;18.828;2022-07-05T07:00:39;9.57;;;1.52;;
72406;SDS011;60396;47.550;18.828;2022-07-05T07:03:30;3.80;;;1.17;;
72406;SDS011;60396;47.550;18.828;2022-07-05T07:06:19;3.90;;;1.10;;
72406;SDS011;60396;47.550;18.828;2022-07-05T07:08:47;8.77;;;1.27;;
72406;SDS011;60396;47.550;18.828;2022-07-05T07:11:32;6.80;;;1.17;;
72406;SDS011;60396;47.550;18.828;2022-07-05T07:14:01;6.05;;;1.20;;
72406;SDS011;60396;47.550;18.828;2022-07-05T07:16:28;3.33;;;1.03;;
72406;SDS011;60396;47.550;18.828;2022-07-05T07:18:57;5.97;;;1.20;;
72406;SDS011;60396;47.550;18.828;2022-07-05T07:21:41;4.85;;;1.20;;
72406;SDS011;60396;47.550;18.828;2022-07-05T07:24:10;3.87;;;1.30;;
72406;SDS011;60396;47.550;18.828;2022-07-05T07:26:38;5.05;;;1.40;;
72406;SDS011;60396;47.550;18.828;2022-07-05T07:29:24;4.30;;;1.20;;
72406;SDS011;60396;47.550;18.828;2022-07-05T07:31:52;5.80;;;1.77;;
72406;SDS011;60396;47.550;18.828;2022-07-05T07:34:20;5.78;;;1.20;;
72406;SDS011;60396;47.550;18.828;2022-07-05T07:36:48;3.10;;;1.10;;
72406;SDS011;60396;47.550;18.828;2022-07-05T07:39:16;5.72;;;1.05;;
72406;SDS011;60396;47.550;18.828;2022-07-05T07:41:44;5.07;;;1.40;;
72406;SDS011;60396;47.550;18.828;2022-07-05T07:44:12;5.40;;;1.50;;
72406;SDS011;60396;47.550;18.828;2022-07-05T07:46:39;4.65;;;0.95;;
72406;SDS011;60396;47.550;18.828;2022-07-05T07:49:08;4.15;;;1.52;;
72406;SDS011;60396;47.550;18.828;2022-07-05T07:51:36;4.93;;;1.37;;
72406;SDS011;60396;47.550;18.828;2022-07-05T07:54:04;4.53;;;1.13;;
72406;SDS011;60396;47.550;18.828;2022-07-05T07:56:42;6.07;;;1.60;;
72406;SDS011;60396;47.550;18.828;2022-07-05T07:59:10;4.20;;;1.35;;
72406;SDS011;60396;47.550;18.828;2022-07-05T08:01:38;4.05;;;1.40;;
72406;SDS011;60396;47.550;18.828;2022-07-05T08:04:12;4.15;;;1.42;;
72406;SDS011;60396;47.550;18.828;2022-07-05T08:06:41;4.37;;;1.30;;
72406;SDS011;60396;47.550;18.828;2022-07-05T08:09:10;6.72;;;1.37;;
72406;SDS011;60396;47.550;18.828;2022-07-05T08:11:43;5.55;;;1.40;;
72406;SDS011;60396;47.550;18.828;2022-07-05T08:14:11;7.93;;;1.50;;
72406;SDS011;60396;47.550;18.828;2022-07-05T08:16:39;6.62;;;1.95;;
72406;SDS011;60396;47.550;18.828;2022-07-05T08:19:12;4.67;;;1.50;;
72406;SDS011;60396;47.550;18.828;2022-07-05T08:21:59;4.25;;;1.58;;
72406;SDS011;60396;47.550;18.828;2022-07-05T08:24:28;4.72;;;1.33;;
72406;SDS011;60396;47.550;18.828;2022-07-05T08:26:56;6.60;;;1.75;;
72406;SDS011;60396;47.550;18.828;2022-07-05T08:29:24;5.05;;;1.45;;
72406;SDS011;60396;47.550;18.828;2022-07-05T08:31:52;6.57;;;1.50;;
72406;SDS011;60396;47.550;18.828;2022-07-05T08:34:19;10.18;;;1.73;;
72406;SDS011;60396;47.550;18.828;2022-07-05T08:36:47;4.03;;;1.20;;
72406;SDS011;60396;47.550;18.828;2022-07-05T08:39:16;7.07;;;1.55;;
72406;SDS011;60396;47.550;18.828;2022-07-05T08:41:46;5.05;;;1.52;;
72406;SDS011;60396;47.550;18.828;2022-07-05T08:44:21;6.10;;;2.03;;
72406;SDS011;60396;47.550;18.828;2022-07-05T08:46:50;6.50;;;1.67;;
72406;SDS011;60396;47.550;18.828;2022-07-05T08:49:24;5.00;;;1.70;;
72406;SDS011;60396;47.550;18.828;2022-07-05T08:51:54;8.65;;;1.80;;
72406;SDS011;60396;47.550;18.828;2022-07-05T08:54:23;7.85;;;1.65;;
72406;SDS011;60396;47.550;18.828;2022-07-05T08:56:51;5.57;;;1.80;;
72406;SDS011;60396;47.550;18.828;2022-07-05T08:59:38;6.55;;;1.70;;
72406;SDS011;60396;47.550;18.828;2022-07-05T09:02:05;5.03;;;1.48;;
72406;SDS011;60396;47.550;18.828;2022-07-05T09:04:35;5.53;;;1.75;;
72406;SDS011;60396;47.550;18.828;2022-07-05T09:07:10;6.40;;;1.50;;
72406;SDS011;60396;47.550;18.828;2022-07-05T09:09:40;5.27;;;1.60;;
72406;SDS011;60396;47.550;18.828;2022-07-05T09:12:12;6.85;;;1.73;;
72406;SDS011;60396;47.550;18.828;2022-07-05T09:14:53;6.97;;;1.70;;
72406;SDS011;60396;47.550;18.828;2022-07-05T09:17:21;6.10;;;1.80;;
72406;SDS011;60396;47.550;18.828;2022-07-05T09:22:51;6.07;;;1.80;;
72406;SDS011;60396;47.550;18.828;2022-07-05T09:27:56;5.75;;;1.50;;
72406;SDS011;60396;47.550;18.828;2022-07-05T09:30:34;7.40;;;2.20;;
72406;SDS011;60396;47.550;18.828;2022-07-05T09:35:37;9.97;;;1.73;;
72406;SDS011;60396;47.550;18.828;2022-07-05T09:38:18;7.95;;;1.85;;
72406;SDS011;60396;47.550;18.828;2022-07-05T09:43:17;5.05;;;1.80;;
72406;SDS011;60396;47.550;18.828;2022-07-05T09:45:52;7.80;;;2.12;;
72406;SDS011;60396;47.550;18.828;2022-07-05T09:48:23;10.53;;;1.93;;
72406;SDS011;60396;47.550;18.828;2022-07-05T09:51:06;8.77;;;2.03;;
72406;SDS011;60396;47.550;18.828;2022-07-05T09:54:01;21.52;;;2.60;;
72406;SDS011;60396;47.550;18.828;2022-07-05T09:56:45;10.70;;;2.55;;
72406;SDS011;60396;47.550;18.828;2022-07-05T09:59:15;7.25;;;2.10;;
72406;SDS011;60396;47.550;18.828;2022-07-05T10:01:45;15.37;;;3.20;;
72406;SDS011;60396;47.550;18.828;2022-07-05T10:04:13;17.50;;;3.47;;
72406;SDS011;60396;47.550;18.828;2022-07-05T10:06:41;9.35;;;3.00;;
72406;SDS011;60396;47.550;18.828;2022-07-05T10:09:10;7.43;;;2.60;;
72406;SDS011;60396;47.550;18.828;2022-07-05T10:11:40;8.02;;;3.25;;
72406;SDS011;60396;47.550;18.828;2022-07-05T10:14:15;7.20;;;3.23;;
72406;SDS011;60396;47.550;18.828;2022-07-05T10:16:45;10.55;;;2.83;;
72406;SDS011;60396;47.550;18.828;2022-07-05T10:19:18;5.70;;;2.35;;
72406;SDS011;60396;47.550;18.828;2022-07-05T10:21:48;7.25;;;2.67;;
72406;SDS011;60396;47.550;18.828;2022-07-05T10:24:37;7.97;;;2.50;;
72406;SDS011;60396;47.550;18.828;2022-07-05T10:27:05;6.50;;;2.43;;
72406;SDS011;60396;47.550;18.828;2022-07-05T10:29:35;6.95;;;2.58;;
72406;SDS011;60396;47.550;18.828;2022-07-05T10:32:04;5.80;;;2.60;;
72406;SDS011;60396;47.550;18.828;2022-07-05T10:34:34;6.55;;;2.40;;
72406;SDS011;60396;47.550;18.828;2022-07-05T10:37:21;5.72;;;2.30;;
72406;SDS011;60396;47.550;18.828;2022-07-05T10:39:54;6.80;;;2.70;;
72406;SDS011;60396;47.550;18.828;2022-07-05T10:42:23;6.65;;;2.30;;
72406;SDS011;60396;47.550;18.828;2022-07-05T10:44:50;6.43;;;2.25;;
72406;SDS011;60396;47.550;18.828;2022-07-05T10:47:18;10.27;;;2.90;;
72406;SDS011;60396;47.550;18.828;2022-07-05T10:49:58;8.52;;;2.85;;
72406;SDS011;60396;47.550;18.828;2022-07-05T10:52:28;9.50;;;2.70;;
72406;SDS011;60396;47.550;18.828;2022-07-05T11:00:49;6.72;;;2.60;;
72406;SDS011;60396;47.550;18.828;2022-07-05T11:16:48;6.10;;;2.70;;
72406;SDS011;60396;47.550;18.828;2022-07-05T11:20:09;8.80;;;3.13;;
72406;SDS011;60396;47.550;18.828;2022-07-05T11:22:40;8.85;;;2.62;;
72406;SDS011;60396;47.550;18.828;2022-07-05T11:25:09;7.00;;;3.10;;
72406;SDS011;60396;47.550;18.828;2022-07-05T11:27:58;7.40;;;2.90;;
72406;SDS011;60396;47.550;18.828;2022-07-05T11:30:29;6.53;;;3.17;;
72406;SDS011;60396;47.550;18.828;2022-07-05T11:32:58;5.90;;;2.50;;
72406;SDS011;60396;47.550;18.828;2022-07-05T11:35:28;7.75;;;2.97;;
72406;SDS011;60396;47.550;18.828;2022-07-05T11:38:04;6.85;;;2.80;;
72406;SDS011;60396;47.550;18.828;2022-07-05T11:40:53;8.25;;;2.60;;
72406;SDS011;60396;47.550;18.828;2022-07-05T11:43:29;9.48;;;2.72;;
72406;SDS011;60396;47.550;18.828;2022-07-05T11:45:58;7.47;;;2.47;;
72406;SDS011;60396;47.550;18.828;2022-07-05T11:48:27;7.78;;;3.30;;
72406;SDS011;60396;47.550;18.828;2022-07-05T11:50:55;5.65;;;2.45;;
72406;SDS011;60396;47.550;18.828;2022-07-05T11:53:27;6.25;;;2.80;;
72406;SDS011;60396;47.550;18.828;2022-07-05T11:56:16;6.30;;;2.85;;
72406;SDS011;60396;47.550;18.828;2022-07-05T11:58:44;6.70;;;2.70;;
72406;SDS011;60396;47.550;18.828;2022-07-05T12:01:12;7.03;;;2.72;;
72406;SDS011;60396;47.550;18.828;2022-07-05T12:03:40;6.55;;;2.90;;
72406;SDS011;60396;47.550;18.828;2022-07-05T12:06:11;8.15;;;3.20;;
72406;SDS011;60396;47.550;18.828;2022-07-05T12:08:40;6.30;;;3.08;;
72406;SDS011;60396;47.550;18.828;2022-07-05T12:11:11;6.17;;;3.07;;
72406;SDS011;60396;47.550;18.828;2022-07-05T12:13:58;7.12;;;3.35;;
72406;SDS011;60396;47.550;18.828;2022-07-05T12:16:26;6.78;;;3.15;;
72406;SDS011;60396;47.550;18.828;2022-07-05T12:18:55;7.93;;;3.33;;
72406;SDS011;60396;47.550;18.828;2022-07-05T12:21:24;7.72;;;3.70;;
72406;SDS011;60396;47.550;18.828;2022-07-05T12:23:51;9.40;;;4.10;;
72406;SDS011;60396;47.550;18.828;2022-07-05T12:26:19;8.18;;;3.90;;
72406;SDS011;60396;47.550;18.828;2022-07-05T12:28:49;8.55;;;3.65;;
72406;SDS011;60396;47.550;18.828;2022-07-05T12:31:19;7.57;;;3.28;;
72406;SDS011;60396;47.550;18.828;2022-07-05T12:33:51;9.02;;;3.67;;
72406;SDS011;60396;47.550;18.828;2022-07-05T12:36:20;9.27;;;4.33;;
72406;SDS011;60396;47.550;18.828;2022-07-05T12:38:58;7.07;;;3.42;;
72406;SDS011;60396;47.550;18.828;2022-07-05T12:41:26;7.60;;;3.92;;
72406;SDS011;60396;47.550;18.828;2022-07-05T12:43:54;7.53;;;4.00;;
72406;SDS011;60396;47.550;18.828;2022-07-05T12:46:39;8.32;;;4.05;;
72406;SDS011;60396;47.550;18.828;2022-07-05T12:49:10;6.93;;;4.00;;
72406;SDS011;60396;47.550;18.828;2022-07-05T12:51:39;7.50;;;3.60;;
72406;SDS011;60396;47.550;18.828;2022-07-05T12:54:21;6.60;;;3.50;;
72406;SDS011;60396;47.550;18.828;2022-07-05T12:57:08;7.30;;;4.18;;
72406;SDS011;60396;47.550;18.828;2022-07-05T13:00:01;7.75;;;4.35;;
72406;SDS011;60396;47.550;18.828;2022-07-05T13:02:35;8.33;;;4.30;;
72406;SDS011;60396;47.550;18.828;2022-07-05T13:05:18;8.68;;;3.97;;
72406;SDS011;60396;47.550;18.828;2022-07-05T13:07:53;8.38;;;4.32;;
72406;SDS011;60396;47.550;18.828;2022-07-05T13:10:25;9.60;;;4.57;;
72406;SDS011;60396;47.550;18.828;2022-07-05T13:12:56;7.32;;;4.05;;
72406;SDS011;60396;47.550;18.828;2022-07-05T13:15:24;8.70;;;4.40;;
72406;SDS011;60396;47.550;18.828;2022-07-05T13:17:52;7.10;;;3.85;;
72406;SDS011;60396;47.550;18.828;2022-07-05T13:20:20;8.05;;;4.28;;
72406;SDS011;60396;47.550;18.828;2022-07-05T13:22:50;6.82;;;3.45;;
72406;SDS011;60396;47.550;18.828;2022-07-05T13:25:18;6.35;;;3.17;;
72406;SDS011;60396;47.550;18.828;2022-07-05T13:27:46;7.23;;;3.40;;
72406;SDS011;60396;47.550;18.828;2022-07-05T13:30:13;7.60;;;4.12;;
72406;SDS011;60396;47.550;18.828;2022-07-05T13:32:41;8.77;;;3.60;;
72406;SDS011;60396;47.550;18.828;2022-07-05T13:35:09;8.18;;;3.78;;
72406;SDS011;60396;47.550;18.828;2022-07-05T13:37:38;7.18;;;3.60;;
72406;SDS011;60396;47.550;18.828;2022-07-05T13:40:06;7.30;;;3.73;;
72406;SDS011;60396;47.550;18.828;2022-07-05T13:42:34;8.73;;;4.47;;
72406;SDS011;60396;47.550;18.828;2022-07-05T13:45:02;8.20;;;4.40;;
72406;SDS011;60396;47.550;18.828;2022-07-05T13:47:30;11.45;;;4.07;;
72406;SDS011;60396;47.550;18.828;2022-07-05T13:49:58;8.25;;;3.90;;
72406;SDS011;60396;47.550;18.828;2022-07-05T13:52:44;7.23;;;3.90;;
72406;SDS011;60396;47.550;18.828;2022-07-05T13:55:12;6.90;;;3.65;;
72406;SDS011;60396;47.550;18.828;2022-07-05T13:57:39;6.75;;;3.17;;
72406;SDS011;60396;47.550;18.828;2022-07-05T14:00:07;9.05;;;3.72;;
72406;SDS011;60396;47.550;18.828;2022-07-05T14:02:35;7.03;;;2.50;;
72406;SDS011;60396;47.550;18.828;2022-07-05T14:05:03;5.33;;;2.27;;
72406;SDS011;60396;47.550;18.828;2022-07-05T14:07:31;6.50;;;2.58;;
72406;SDS011;60396;47.550;18.828;2022-07-05T14:09:59;8.02;;;3.25;;
72406;SDS011;60396;47.550;18.828;2022-07-05T14:12:27;5.55;;;2.20;;
72406;SDS011;60396;47.550;18.828;2022-07-05T14:14:54;6.20;;;2.25;;
72406;SDS011;60396;47.550;18.828;2022-07-05T14:17:22;9.03;;;2.77;;
72406;SDS011;60396;47.550;18.828;2022-07-05T14:19:50;4.82;;;2.08;;
72406;SDS011;60396;47.550;18.828;2022-07-05T14:22:18;5.32;;;1.70;;
72406;SDS011;60396;47.550;18.828;2022-07-05T14:24:46;8.05;;;2.20;;
72406;SDS011;60396;47.550;18.828;2022-07-05T14:27:13;5.97;;;2.70;;
72406;SDS011;60396;47.550;18.828;2022-07-05T14:29:41;6.80;;;2.43;;
72406;SDS011;60396;47.550;18.828;2022-07-05T14:32:09;8.73;;;2.30;;
72406;SDS011;60396;47.550;18.828;2022-07-05T14:34:37;5.37;;;2.28;;
72406;SDS011;60396;47.550;18.828;2022-07-05T14:37:04;6.78;;;2.90;;
72406;SDS011;60396;47.550;18.828;2022-07-05T14:39:32;5.25;;;2.50;;
72406;SDS011;60396;47.550;18.828;2022-07-05T14:42:00;5.07;;;2.00;;
72406;SDS011;60396;47.550;18.828;2022-07-05T14:44:27;5.18;;;2.17;;
72406;SDS011;60396;47.550;18.828;2022-07-05T14:46:55;5.78;;;2.30;;
72406;SDS011;60396;47.550;18.828;2022-07-05T14:49:23;6.75;;;2.40;;
72406;SDS011;60396;47.550;18.828;2022-07-05T14:51:50;5.70;;;2.30;;
72406;SDS011;60396;47.550;18.828;2022-07-05T14:54:18;6.30;;;1.90;;
72406;SDS011;60396;47.550;18.828;2022-07-05T14:56:46;5.28;;;1.67;;
72406;SDS011;60396;47.550;18.828;2022-07-05T14:59:13;5.35;;;1.58;;
72406;SDS011;60396;47.550;18.828;2022-07-05T15:01:42;5.78;;;1.83;;
72406;SDS011;60396;47.550;18.828;2022-07-05T15:04:09;5.12;;;1.87;;
72406;SDS011;60396;47.550;18.828;2022-07-05T15:06:37;5.07;;;1.87;;
72406;SDS011;60396;47.550;18.828;2022-07-05T15:09:07;3.92;;;1.55;;
72406;SDS011;60396;47.550;18.828;2022-07-05T15:11:34;5.37;;;1.87;;
72406;SDS011;60396;47.550;18.828;2022-07-05T15:14:02;6.95;;;1.92;;
72406;SDS011;60396;47.550;18.828;2022-07-05T15:16:31;4.90;;;2.00;;
72406;SDS011;60396;47.550;18.828;2022-07-05T15:18:59;4.63;;;2.03;;
72406;SDS011;60396;47.550;18.828;2022-07-05T15:21:28;5.57;;;2.22;;